Terminal Aerodrome Forecast
Issued by NWS

Home | Current Version | Previous Version | Text Only | Print | Product List | Glossary On
Versions: 1 2 3 4 5 6 7 8 9 10 11 12 13 14 15
000
FTAK31 PAFA 140527
TAFASC
TAF
PASC 140527Z 1406/1506 06031G36KT 1/4SM -SN BLSN VV007
      TEMPO 1406/1410 1/2SM -SN BLSN
     FM142000 07023KT 1/2SM SN BLSN OVC007
     FM150000 07019KT 1 1/2SM -SN BLSN OVC015=

USA.gov is the U.S. government's official web portal to all federal, state and local government web resources and services.